createdAt,value
2022-10-09T00:00:51.031Z,9.20
2022-10-09T00:03:36.682Z,9.19
2022-10-09T00:06:08.107Z,9.17
2022-10-09T00:08:39.778Z,9.12
2022-10-09T00:11:15.639Z,9.11
2022-10-09T00:13:46.287Z,9.11
2022-10-09T00:16:18.028Z,9.09
2022-10-09T00:18:49.299Z,9.05
2022-10-09T00:21:30.710Z,9.02
2022-10-09T00:24:02.581Z,9.01
2022-10-09T00:26:32.038Z,8.99
2022-10-09T00:29:03.758Z,8.98
2022-10-09T00:31:33.512Z,8.95
2022-10-09T00:34:02.633Z,8.95
2022-10-09T00:36:32.466Z,8.95
2022-10-09T00:39:02.140Z,8.93
2022-10-09T00:41:34.260Z,8.91
2022-10-09T00:44:25.727Z,8.89
2022-10-09T00:46:55.890Z,8.87
2022-10-09T00:49:31.768Z,8.85
2022-10-09T00:52:08.511Z,8.83
2022-10-09T00:54:40.735Z,8.80
2022-10-09T00:57:10.905Z,8.75
2022-10-09T00:59:40.932Z,8.68
2022-10-09T01:02:10.933Z,8.64
2022-10-09T01:04:40.490Z,8.62
2022-10-09T01:07:41.172Z,8.58
2022-10-09T01:10:19.554Z,8.53
2022-10-09T01:13:18.954Z,8.51
2022-10-09T01:15:56.070Z,8.44
2022-10-09T01:18:51.309Z,8.40
2022-10-09T01:21:26.730Z,8.36
2022-10-09T01:24:26.451Z,8.30
2022-10-09T01:27:22.317Z,8.22
2022-10-09T01:30:04.854Z,8.17
2022-10-09T01:32:41.529Z,8.14
2022-10-09T01:35:13.560Z,8.11
2022-10-09T01:37:46.184Z,8.09
2022-10-09T01:40:17.831Z,8.09
2022-10-09T01:42:47.645Z,8.09
2022-10-09T01:45:17.555Z,8.08
2022-10-09T01:47:47.460Z,8.07
2022-10-09T01:50:34.786Z,8.06
2022-10-09T01:53:11.734Z,8.07
2022-10-09T01:55:50.244Z,8.08
2022-10-09T01:58:23.101Z,8.08
2022-10-09T02:01:10.931Z,8.07
2022-10-09T02:03:44.964Z,8.04
2022-10-09T02:06:16.328Z,7.99
2022-10-09T02:08:50.077Z,7.94
2022-10-09T02:11:21.939Z,7.92
2022-10-09T02:13:53.348Z,7.91
2022-10-09T02:16:36.831Z,7.90
2022-10-09T02:19:26.843Z,7.89
2022-10-09T02:22:08.768Z,7.86
2022-10-09T02:24:40.528Z,7.81
2022-10-09T02:27:12.916Z,7.78
2022-10-09T02:29:44.473Z,7.73
2022-10-09T02:32:15.239Z,7.71
2022-10-09T02:34:45.912Z,7.69
2022-10-09T02:37:16.148Z,7.67
2022-10-09T02:39:45.762Z,7.66
2022-10-09T02:42:15.558Z,7.67
2022-10-09T02:44:45.294Z,7.68
2022-10-09T02:47:15.164Z,7.70
2022-10-09T02:49:44.779Z,7.65
2022-10-09T02:52:14.022Z,7.63
2022-10-09T02:54:43.867Z,7.64
2022-10-09T02:57:13.445Z,7.65
2022-10-09T02:59:43.103Z,7.67
2022-10-09T03:02:12.635Z,7.66
2022-10-09T03:04:42.584Z,7.65
2022-10-09T03:07:12.080Z,7.66
2022-10-09T03:09:42.361Z,7.67
2022-10-09T03:12:12.592Z,7.67
2022-10-09T03:14:43.716Z,7.68
2022-10-09T03:17:12.504Z,7.67
2022-10-09T03:19:42.096Z,7.65
2022-10-09T03:22:11.923Z,7.61
2022-10-09T03:24:42.020Z,7.51
2022-10-09T03:27:12.232Z,7.42
2022-10-09T03:29:42.169Z,7.37
2022-10-09T03:32:12.408Z,7.35
2022-10-09T03:34:42.005Z,7.32
2022-10-09T03:37:11.619Z,7.31
2022-10-09T03:39:41.182Z,7.29
2022-10-09T03:42:11.151Z,7.27
2022-10-09T03:44:40.891Z,7.25
2022-10-09T03:47:10.835Z,7.23
2022-10-09T03:49:40.300Z,7.23
2022-10-09T03:52:08.684Z,7.22
2022-10-09T03:54:39.959Z,7.23
2022-10-09T03:57:09.763Z,7.22
2022-10-09T03:59:39.357Z,7.22
2022-10-09T04:02:09.327Z,7.18
2022-10-09T04:04:38.923Z,7.15
2022-10-09T04:07:08.957Z,7.14
2022-10-09T04:09:37.343Z,7.14
2022-10-09T04:12:07.129Z,7.15
2022-10-09T04:14:36.528Z,7.14
2022-10-09T04:17:06.188Z,7.10
2022-10-09T04:19:36.674Z,7.09
2022-10-09T04:22:06.263Z,7.09
2022-10-09T04:24:36.157Z,7.11
2022-10-09T04:27:06.113Z,7.13
2022-10-09T04:29:35.470Z,7.15
2022-10-09T04:32:03.908Z,7.17
2022-10-09T04:34:36.904Z,7.20
2022-10-09T04:37:06.175Z,7.22
2022-10-09T04:39:36.042Z,7.23
2022-10-09T04:42:06.614Z,7.26
2022-10-09T04:44:35.740Z,7.29
2022-10-09T04:47:10.532Z,7.33
2022-10-09T04:49:41.466Z,7.37
2022-10-09T04:52:11.429Z,7.42
2022-10-09T04:54:41.332Z,7.48
2022-10-09T04:57:11.156Z,7.54
2022-10-09T04:59:43.059Z,7.59
2022-10-09T05:02:12.743Z,7.65
2022-10-09T05:04:41.115Z,7.71
2022-10-09T05:07:11.048Z,7.76
2022-10-09T05:09:40.873Z,7.84
2022-10-09T05:12:09.558Z,7.93
2022-10-09T05:14:38.233Z,7.99
2022-10-09T05:17:14.284Z,8.09
2022-10-09T05:19:45.940Z,8.22
2022-10-09T05:22:15.070Z,8.33
2022-10-09T05:24:44.291Z,8.43
2022-10-09T05:27:13.881Z,8.52
2022-10-09T05:29:43.553Z,8.59
2022-10-09T05:32:15.045Z,8.65
2022-10-09T05:34:44.717Z,8.71
2022-10-09T05:37:14.286Z,8.73
2022-10-09T05:39:43.824Z,8.76
2022-10-09T05:42:13.616Z,8.78
2022-10-09T05:44:43.287Z,8.81
2022-10-09T05:47:13.926Z,8.84
2022-10-09T05:49:43.606Z,8.87
2022-10-09T05:52:13.414Z,8.91
2022-10-09T05:54:43.340Z,8.97
2022-10-09T05:57:13.079Z,9.04
2022-10-09T05:59:42.691Z,9.14
2022-10-09T06:02:12.391Z,9.24
2022-10-09T06:04:40.765Z,9.31
2022-10-09T06:07:11.701Z,9.44
2022-10-09T06:09:40.917Z,9.61
2022-10-09T06:12:10.357Z,9.73
2022-10-09T06:14:40.023Z,9.76
2022-10-09T06:17:09.700Z,9.79
2022-10-09T06:19:39.337Z,9.88
2022-10-09T06:22:08.891Z,10.05
2022-10-09T06:24:38.585Z,10.24
2022-10-09T06:27:08.024Z,10.48
2022-10-09T06:29:37.708Z,10.73
2022-10-09T06:32:07.436Z,10.97
2022-10-09T06:34:37.351Z,11.17
2022-10-09T06:37:07.410Z,11.40
2022-10-09T06:39:36.723Z,11.66
2022-10-09T06:42:06.463Z,11.92
2022-10-09T06:44:44.946Z,12.21
2022-10-09T06:47:15.182Z,12.46
2022-10-09T06:49:47.154Z,12.75
2022-10-09T06:52:16.932Z,13.05
2022-10-09T06:54:47.291Z,13.35
2022-10-09T06:57:16.623Z,13.65
2022-10-09T06:59:46.216Z,13.94
2022-10-09T07:02:15.595Z,14.20
2022-10-09T07:04:44.720Z,14.42
2022-10-09T07:07:13.954Z,14.57
2022-10-09T07:09:43.257Z,14.76
2022-10-09T07:12:14.418Z,14.91
2022-10-09T07:14:43.532Z,15.03
2022-10-09T07:17:11.875Z,15.23
2022-10-09T07:19:41.774Z,15.47
2022-10-09T07:22:11.872Z,15.70
2022-10-09T07:24:42.943Z,15.97
2022-10-09T07:27:12.006Z,16.19
2022-10-09T07:29:41.572Z,16.36
2022-10-09T07:32:14.777Z,16.52
2022-10-09T07:34:45.754Z,16.70
2022-10-09T07:37:15.035Z,16.86
2022-10-09T07:39:45.178Z,16.97
2022-10-09T07:42:14.646Z,17.05
2022-10-09T07:44:44.023Z,17.14
2022-10-09T07:47:13.144Z,17.35
2022-10-09T07:49:41.664Z,17.50
2022-10-09T07:52:10.783Z,17.58
2022-10-09T07:54:39.302Z,17.76
2022-10-09T07:57:11.625Z,18.10
2022-10-09T07:59:41.638Z,18.32
2022-10-09T08:02:10.906Z,18.45
2022-10-09T08:04:40.566Z,18.58
2022-10-09T08:07:09.598Z,18.85
2022-10-09T08:09:38.076Z,19.16
2022-10-09T08:12:06.609Z,19.38
2022-10-09T08:14:37.109Z,19.48
2022-10-09T08:17:06.982Z,19.58
2022-10-09T08:19:36.911Z,19.58
2022-10-09T08:22:06.889Z,19.50
2022-10-09T08:24:36.971Z,19.40
2022-10-09T08:27:07.224Z,19.33
2022-10-09T08:29:40.230Z,19.33
2022-10-09T08:32:09.729Z,19.34
2022-10-09T08:34:38.887Z,19.29
2022-10-09T08:37:08.304Z,19.26
2022-10-09T08:39:52.441Z,19.45
2022-10-09T08:42:48.551Z,19.73
2022-10-09T08:45:19.097Z,19.98
2022-10-09T08:47:56.877Z,20.00
2022-10-09T08:50:33.141Z,20.20
2022-10-09T08:53:37.390Z,20.33
2022-10-09T08:56:13.505Z,20.33
2022-10-09T08:58:44.982Z,20.18
2022-10-09T09:01:21.535Z,20.10
2022-10-09T09:04:02.633Z,20.04
2022-10-09T09:06:39.158Z,20.16
2022-10-09T09:09:18.394Z,20.38
2022-10-09T09:12:34.568Z,20.53
2022-10-09T09:15:19.109Z,20.70
2022-10-09T09:18:16.765Z,20.86
2022-10-09T09:20:53.929Z,20.93
2022-10-09T09:23:31.756Z,21.13
2022-10-09T09:26:03.548Z,21.31
2022-10-09T09:28:36.527Z,21.45
2022-10-09T09:31:23.810Z,21.66
2022-10-09T09:34:21.842Z,21.74
2022-10-09T09:36:57.379Z,21.56
2022-10-09T09:42:23.428Z,21.03
2022-10-09T09:45:07.433Z,21.05
2022-10-09T09:48:21.453Z,21.27
2022-10-09T09:51:10.332Z,21.38
2022-10-09T09:53:50.043Z,21.40
2022-10-09T09:56:20.510Z,21.41
2022-10-09T09:58:53.415Z,21.48
2022-10-09T10:01:28.010Z,21.63
2022-10-09T10:04:00.990Z,21.79
2022-10-09T10:06:36.492Z,21.90
2022-10-09T10:09:15.825Z,21.98
2022-10-09T10:11:58.749Z,22.08
2022-10-09T10:14:29.600Z,22.12
2022-10-09T10:17:01.332Z,22.13
2022-10-09T10:19:39.449Z,22.15
2022-10-09T10:22:25.439Z,22.26
2022-10-09T10:24:58.617Z,22.28
2022-10-09T10:27:36.249Z,22.32
2022-10-09T10:30:07.856Z,22.25
2022-10-09T10:33:04.430Z,22.28
2022-10-09T10:35:42.576Z,22.31
2022-10-09T10:38:32.084Z,22.43
2022-10-09T10:41:14.507Z,22.64
2022-10-09T10:43:50.345Z,22.81
2022-10-09T10:46:40.387Z,22.74
2022-10-09T10:49:18.098Z,22.76
2022-10-09T10:52:17.235Z,22.92
2022-10-09T10:54:59.440Z,23.10
2022-10-09T10:57:58.071Z,23.26
2022-10-09T11:00:29.365Z,23.41
2022-10-09T11:03:20.138Z,23.43
2022-10-09T11:06:03.975Z,23.42
2022-10-09T11:08:47.456Z,23.42
2022-10-09T11:11:38.558Z,23.36
2022-10-09T11:14:20.217Z,23.34
2022-10-09T11:17:06.237Z,23.12
2022-10-09T11:19:57.008Z,22.99
2022-10-09T11:22:36.273Z,23.05
2022-10-09T11:25:26.711Z,23.21
2022-10-09T11:28:05.629Z,23.34
2022-10-09T11:30:48.365Z,23.33
2022-10-09T11:33:30.619Z,23.27
2022-10-09T11:36:07.188Z,23.33
2022-10-09T11:38:46.260Z,23.25
2022-10-09T11:41:16.692Z,23.12
2022-10-09T11:44:09.053Z,23.15
2022-10-09T11:47:01.918Z,23.14
2022-10-09T11:50:15.509Z,23.07
2022-10-09T11:53:04.776Z,23.11
2022-10-09T11:55:35.154Z,23.18
2022-10-09T11:58:18.799Z,23.41
2022-10-09T12:00:54.123Z,23.57
2022-10-09T12:03:26.138Z,23.57
2022-10-09T12:06:15.013Z,23.53
2022-10-09T12:09:07.593Z,23.49
2022-10-09T12:11:38.756Z,23.59
2022-10-09T12:14:12.178Z,23.70
2022-10-09T12:16:46.590Z,23.64
2022-10-09T12:19:24.478Z,23.48
2022-10-09T12:22:22.617Z,23.43
2022-10-09T12:24:55.552Z,23.57
2022-10-09T12:27:39.015Z,23.65
2022-10-09T12:30:15.023Z,23.59
2022-10-09T12:32:48.617Z,23.49
2022-10-09T12:35:32.870Z,23.39
2022-10-09T12:38:02.711Z,23.36
2022-10-09T12:40:34.772Z,23.35
2022-10-09T12:43:08.653Z,23.30
2022-10-09T12:45:45.148Z,23.26
2022-10-09T12:48:23.292Z,23.22
2022-10-09T12:50:53.434Z,23.25
2022-10-09T12:53:25.986Z,23.30
2022-10-09T12:56:00.925Z,23.26
2022-10-09T12:58:33.616Z,23.17
2022-10-09T13:01:11.713Z,23.11
2022-10-09T13:04:09.822Z,23.04
2022-10-09T13:06:50.738Z,23.02
2022-10-09T13:09:25.594Z,22.86
2022-10-09T13:12:01.698Z,22.76
2022-10-09T13:14:46.258Z,22.62
2022-10-09T13:17:36.966Z,22.43
2022-10-09T13:20:16.498Z,22.42
2022-10-09T13:22:58.340Z,22.38
2022-10-09T13:25:34.875Z,22.35
2022-10-09T13:28:04.879Z,22.42
2022-10-09T13:30:34.685Z,22.46
2022-10-09T13:33:03.903Z,22.44
2022-10-09T13:35:32.991Z,22.43
2022-10-09T13:38:02.141Z,22.45
2022-10-09T13:40:33.270Z,22.38
2022-10-09T13:43:06.070Z,22.41
2022-10-09T13:45:35.491Z,22.44
2022-10-09T13:48:05.453Z,22.42
2022-10-09T13:50:34.735Z,22.36
2022-10-09T13:53:05.223Z,22.32
2022-10-09T13:55:35.157Z,22.32
2022-10-09T13:58:05.526Z,22.22
2022-10-09T14:00:38.016Z,22.11
2022-10-09T14:03:08.226Z,22.06
2022-10-09T14:05:38.244Z,21.98
2022-10-09T14:08:08.434Z,21.92
2022-10-09T14:10:37.176Z,21.87
2022-10-09T14:13:14.940Z,21.73
2022-10-09T14:15:45.723Z,21.54
2022-10-09T14:18:15.635Z,21.39
2022-10-09T14:20:45.132Z,21.23
2022-10-09T14:23:15.078Z,21.12
2022-10-09T14:25:45.045Z,21.02
2022-10-09T14:28:15.149Z,20.85
2022-10-09T14:30:44.126Z,20.57
2022-10-09T14:33:14.172Z,20.31
2022-10-09T14:35:43.570Z,20.08
2022-10-09T14:38:13.499Z,19.88
2022-10-09T14:40:44.355Z,19.67
2022-10-09T14:43:14.344Z,19.48
2022-10-09T14:45:44.272Z,19.33
2022-10-09T14:48:14.728Z,19.23
2022-10-09T14:50:45.574Z,19.09
2022-10-09T14:53:15.578Z,18.95
2022-10-09T14:55:46.139Z,18.84
2022-10-09T14:58:16.100Z,18.73
2022-10-09T15:00:48.530Z,18.59
2022-10-09T15:03:19.860Z,18.45
2022-10-09T15:05:48.319Z,18.31
2022-10-09T15:08:17.491Z,18.19
2022-10-09T15:10:49.594Z,18.14
2022-10-09T15:13:18.933Z,18.11
2022-10-09T15:15:48.162Z,18.05
2022-10-09T15:18:17.559Z,17.99
2022-10-09T15:20:47.652Z,17.92
2022-10-09T15:23:16.796Z,17.82
2022-10-09T15:25:51.857Z,17.75
2022-10-09T15:28:21.958Z,17.67
2022-10-09T15:30:53.296Z,17.57
2022-10-09T15:33:22.893Z,17.50
2022-10-09T15:35:53.532Z,17.41
2022-10-09T15:38:24.813Z,17.32
2022-10-09T15:40:56.685Z,17.23
2022-10-09T15:43:28.276Z,17.13
2022-10-09T15:46:07.355Z,17.02
2022-10-09T15:48:36.847Z,16.91
2022-10-09T15:51:14.116Z,16.83
2022-10-09T15:53:45.691Z,16.72
2022-10-09T15:56:18.834Z,16.62
2022-10-09T15:58:48.844Z,16.53
2022-10-09T16:01:19.052Z,16.45
2022-10-09T16:03:49.347Z,16.36
2022-10-09T16:06:21.579Z,16.26
2022-10-09T16:08:51.092Z,16.18
2022-10-09T16:11:24.961Z,16.09
2022-10-09T16:13:59.701Z,15.97
2022-10-09T16:16:29.657Z,15.86
2022-10-09T16:19:04.002Z,15.77
2022-10-09T16:21:33.455Z,15.68
2022-10-09T16:24:03.815Z,15.60
2022-10-09T16:26:33.854Z,15.50
2022-10-09T16:29:04.396Z,15.38
2022-10-09T16:31:35.481Z,15.28
2022-10-09T16:34:08.339Z,15.19
2022-10-09T16:36:37.537Z,15.08
2022-10-09T16:39:08.188Z,14.97
2022-10-09T16:41:41.630Z,14.87
2022-10-09T16:44:17.332Z,14.74
2022-10-09T16:46:47.391Z,14.61
2022-10-09T16:49:21.311Z,14.51
2022-10-09T16:51:53.226Z,14.41
2022-10-09T16:54:23.125Z,14.30
2022-10-09T16:56:52.343Z,14.19
2022-10-09T16:59:22.018Z,14.10
2022-10-09T17:01:51.143Z,14.02
2022-10-09T17:04:22.375Z,13.92
2022-10-09T17:06:53.606Z,13.84
2022-10-09T17:09:23.355Z,13.75
2022-10-09T17:11:52.716Z,13.68
2022-10-09T17:14:23.802Z,13.63
2022-10-09T17:16:53.043Z,13.57
2022-10-09T17:19:22.236Z,13.50
2022-10-09T17:21:51.360Z,13.43
2022-10-09T17:24:20.702Z,13.40
2022-10-09T17:26:50.536Z,13.36
2022-10-09T17:29:20.350Z,13.33
2022-10-09T17:31:50.403Z,13.28
2022-10-09T17:34:20.772Z,13.24
2022-10-09T17:36:49.959Z,13.16
2022-10-09T17:39:19.350Z,13.10
2022-10-09T17:41:49.491Z,13.05
2022-10-09T17:44:17.977Z,12.98
2022-10-09T17:46:47.290Z,12.90
2022-10-09T17:49:16.517Z,12.83
2022-10-09T17:51:47.255Z,12.79
2022-10-09T17:54:17.631Z,12.76
2022-10-09T17:56:47.792Z,12.74
2022-10-09T17:59:17.856Z,12.74
2022-10-09T18:01:47.706Z,12.77
2022-10-09T18:04:17.817Z,12.78
2022-10-09T18:06:47.353Z,12.80
2022-10-09T18:09:18.245Z,12.83
2022-10-09T18:11:48.143Z,12.85
2022-10-09T18:14:17.572Z,12.85
2022-10-09T18:16:46.861Z,12.86
2022-10-09T18:19:20.558Z,12.86
2022-10-09T18:21:50.724Z,12.86
2022-10-09T18:24:20.021Z,12.85
2022-10-09T18:26:49.272Z,12.83
2022-10-09T18:29:20.499Z,12.79
2022-10-09T18:31:50.867Z,12.76
2022-10-09T18:34:19.314Z,12.74
2022-10-09T18:36:51.092Z,12.72
2022-10-09T18:39:21.975Z,12.69
2022-10-09T18:41:51.852Z,12.67
2022-10-09T18:44:22.715Z,12.67
2022-10-09T18:46:59.211Z,12.66
2022-10-09T18:49:31.996Z,12.66
2022-10-09T18:52:03.598Z,12.63
2022-10-09T18:54:33.654Z,12.59
2022-10-09T18:57:04.427Z,12.56
2022-10-09T18:59:37.798Z,12.53
2022-10-09T19:02:08.475Z,12.48
2022-10-09T19:04:40.379Z,12.43
2022-10-09T19:07:09.569Z,12.36
2022-10-09T19:09:39.667Z,12.30
2022-10-09T19:12:09.487Z,12.24
2022-10-09T19:14:39.413Z,12.18
2022-10-09T19:17:09.224Z,12.12
2022-10-09T19:19:39.748Z,12.07
2022-10-09T19:22:14.092Z,12.01
2022-10-09T19:24:46.001Z,11.96
2022-10-09T19:27:15.524Z,11.91
2022-10-09T19:29:45.409Z,11.85
2022-10-09T19:32:14.562Z,11.80
2022-10-09T19:34:45.511Z,11.74
2022-10-09T19:37:15.771Z,11.65
2022-10-09T19:39:48.899Z,11.57
2022-10-09T19:42:19.388Z,11.50
2022-10-09T19:44:49.458Z,11.43
2022-10-09T19:47:21.857Z,11.38
2022-10-09T19:49:51.800Z,11.34
2022-10-09T19:52:23.366Z,11.32
2022-10-09T19:54:53.569Z,11.31
2022-10-09T19:57:23.048Z,11.28
2022-10-09T19:59:53.022Z,11.30
2022-10-09T20:02:22.154Z,11.33
2022-10-09T20:04:51.439Z,11.35
2022-10-09T20:07:21.555Z,11.35
2022-10-09T20:09:50.768Z,11.33
2022-10-09T20:12:20.827Z,11.33
2022-10-09T20:14:50.119Z,11.30
2022-10-09T20:17:18.850Z,11.24
2022-10-09T20:19:48.362Z,11.19
2022-10-09T20:22:18.828Z,11.18
2022-10-09T20:24:49.123Z,11.18
2022-10-09T20:27:19.045Z,11.19
2022-10-09T20:29:48.563Z,11.17
2022-10-09T20:32:18.974Z,11.16
2022-10-09T20:34:48.911Z,11.15
2022-10-09T20:37:18.603Z,11.12
2022-10-09T20:39:49.461Z,11.10
2022-10-09T20:42:19.664Z,11.08
2022-10-09T20:44:49.547Z,11.06
2022-10-09T20:47:17.888Z,11.01
2022-10-09T20:49:48.875Z,10.97
2022-10-09T20:52:19.039Z,10.93
2022-10-09T20:54:48.891Z,10.86
2022-10-09T20:57:18.831Z,10.81
2022-10-09T20:59:48.929Z,10.77
2022-10-09T21:02:18.579Z,10.75
2022-10-09T21:04:47.954Z,10.72
2022-10-09T21:07:17.986Z,10.68
2022-10-09T21:09:47.694Z,10.61
2022-10-09T21:12:17.227Z,10.55
2022-10-09T21:14:46.965Z,10.50
2022-10-09T21:17:16.986Z,10.40
2022-10-09T21:19:45.405Z,10.27
2022-10-09T21:22:14.416Z,10.19
2022-10-09T21:24:44.869Z,10.15
2022-10-09T21:27:14.795Z,10.11
2022-10-09T21:29:44.859Z,10.03
2022-10-09T21:32:14.429Z,9.96
2022-10-09T21:34:44.799Z,9.89
2022-10-09T21:37:22.580Z,9.84
2022-10-09T21:39:53.631Z,9.81
2022-10-09T21:42:22.049Z,9.77
2022-10-09T21:44:52.297Z,9.73
2022-10-09T21:47:22.761Z,9.57
2022-10-09T21:49:52.761Z,9.46
2022-10-09T21:52:22.437Z,9.41
2022-10-09T21:54:52.530Z,9.33
2022-10-09T21:57:22.513Z,9.29
2022-10-09T21:59:52.584Z,9.24
2022-10-09T22:02:21.121Z,9.21
2022-10-09T22:04:51.965Z,9.17
2022-10-09T22:07:22.271Z,9.14
2022-10-09T22:09:53.794Z,9.13
2022-10-09T22:12:24.435Z,9.13
2022-10-09T22:14:56.174Z,9.08
2022-10-09T22:17:26.060Z,9.04
2022-10-09T22:19:56.016Z,8.94
2022-10-09T22:22:26.116Z,8.85
2022-10-09T22:24:59.678Z,8.78
2022-10-09T22:27:30.116Z,8.73
2022-10-09T22:29:59.716Z,8.71
2022-10-09T22:32:30.029Z,8.70
2022-10-09T22:34:59.734Z,8.67
2022-10-09T22:37:29.616Z,8.62
2022-10-09T22:39:59.802Z,8.59
2022-10-09T22:42:29.029Z,8.55
2022-10-09T22:44:58.657Z,8.50
2022-10-09T22:47:28.697Z,8.47
2022-10-09T22:49:58.206Z,8.42
2022-10-09T22:52:29.094Z,8.40
2022-10-09T22:54:58.170Z,8.38
2022-10-09T22:57:27.266Z,8.38
2022-10-09T22:59:57.707Z,8.36
2022-10-09T23:02:28.620Z,8.36
2022-10-09T23:04:58.911Z,8.36
2022-10-09T23:07:29.375Z,8.34
2022-10-09T23:09:59.497Z,8.33
2022-10-09T23:12:29.518Z,8.34
2022-10-09T23:14:59.165Z,8.32
2022-10-09T23:17:29.759Z,8.29
2022-10-09T23:19:59.876Z,8.27
2022-10-09T23:22:29.691Z,8.28
2022-10-09T23:24:59.419Z,8.27
2022-10-09T23:27:29.927Z,8.24
2022-10-09T23:30:02.139Z,8.21
2022-10-09T23:32:32.125Z,8.22
2022-10-09T23:35:02.337Z,8.21
2022-10-09T23:37:32.057Z,8.17
2022-10-09T23:40:02.485Z,8.12
2022-10-09T23:42:32.487Z,8.09
2022-10-09T23:45:02.793Z,8.07
2022-10-09T23:47:32.393Z,8.03
2022-10-09T23:50:02.557Z,7.98
2022-10-09T23:52:33.887Z,7.96
2022-10-09T23:55:03.688Z,7.94
2022-10-09T23:57:35.155Z,7.93
